We konden geen weer-waarchuwingen ophalen. Ga rechtstreeks naar de Meteoalarm site : www.meteoalarm.eu en controleer daar .



Onweer radar Meer informatie blitzortung!


Regen radar Meer informatie rain snow radar


Bezoek onze andere website:

Template documentation
and downloads

And another site

Forum Leuven-template

EUWEATHER.EU

Verwachtingen Meteociel


U vindt ons ook hier:

Het Weer Aktueel

UK Metoffice

European Weather Network

WeatherCloud

Weather Underground

Benelux Weer Netwerk

AWEKAS

WeatherlinkIP

HAMweather, WeatherForYou, PWS Weather

Wetterpage 24

Wetter.com



METAR rapporten vliegvelden

   
EBAW - Antwerp
Gewijzigd: 24-02-2019 02:50
Helder  
Helder  
   Wind: Oosten 3.7 km/h
Wind: Oosten 3.7 km/h
Temperatuur: 3°C
Dauwpunt: -1°C
Vochtigheid: 75%
Barometer: 1035 hPa
Zicht: meer dan 10 km
Bewolking: Helder
EBAW 240150Z AUTO 09002KT CAVOK 03/M01 Q1035
EBLG - Li├Ęge
Gewijzigd: 24-02-2019 02:50
Helder  
Helder  
   Wind: ZO 11.1 km/h
Wind: ZO 11.1 km/h
Temperatuur: 5°C
Voelt als: 2°C
Dauwpunt: -7°C
Vochtigheid: 42%
Barometer: 1035 hPa
Zicht: meer dan 10 km
Bewolking: Helder
EBLG 240150Z 14006KT CAVOK 05/M07 Q1035 NOSIG
EBCV - Mons/Bergen
Gewijzigd: 24-02-2019 02:55
Helder  
Helder  
   Wind: ONO 5.6 km/h
Wind: ONO 5.6 km/h
Temperatuur: 2°C
Voelt als: 1°C
Dauwpunt: 0°C
Vochtigheid: 87%
Barometer: 1035 hPa
Bewolking: Helder
Zicht: meer dan 10 km
Bewolking: Helder
EBCV 240155Z AUTO 07003KT 9999 NCD 02/M00 Q1035 BLU
EHBK - Maastricht
Gewijzigd: 24-02-2019 02:55
Helder  
Helder  
   Wind: OZO 11.1 km/h
Wind: OZO 11.1 km/h
Temperatuur: 2°C
Voelt als: -1°C
Dauwpunt: -3°C
Vochtigheid: 70%
Barometer: 1035 hPa
Bewolking: Helder
Zicht: meer dan 10 km
Bewolking: Helder
EHBK 240155Z AUTO 11006KT 9999 NCD 02/M03 Q1035
ELLX - Luxemburg
Gewijzigd: 24-02-2019 02:50
Helder  
Helder  
   Wind: NO 18.5 km/h
Wind: NO 18.5 km/h
Temperatuur: 3°C
Voelt als: -1°C
Dauwpunt: -8°C
Vochtigheid: 45%
Barometer: 1035 hPa
Bewolking: Helder
Zicht: meer dan 10 km
Bewolking: Helder
ELLX 240150Z AUTO 05010KT 9999 NCD 03/M08 Q1035 NOSIG
EBOS - Oostende
Gewijzigd: 24-02-2019 02:50
Helder  
Helder  
   Wind: NO 3.7 km/h
Wind: NO 3.7 km/h
Temperatuur: 3°C
Dauwpunt: 0°C
Vochtigheid: 81%
Barometer: 1035 hPa
Zicht: meer dan 10 km
Bewolking: Helder
EBOS 240150Z 05002KT CAVOK 03/00 Q1035 NOSIG

Script ontwikkeld door  Saratoga-weather.org Aangepast voor de template door  Weerstation Leuven

Apparatuur in gebruik:

Weerstation
Davis VP2

Weerprogramma
Meteobridge

Weercomputer
Asus WL -330N3G

Webleverancier
Onecom

Davis VP2

Meteobridge

Asus WL -330N3G

Onecom